MMLO 090543Z 00000KT 8SM SKC 11/00 A3032 RMK SLP153 52002 951 CI= 090543

MMLO 090454Z 33004KT 8SM FEW250 12/01 A3032 RMK 8/001= 090454

MMLO 090345Z 34004KT 8SM FEW250 13/01 A3031 RMK 8/001= 090346

MMLO 090300Z RTD 36006KT 8SM FEW250 14/00 A3031 RMK SLP171 52017 907 8/001= 090300

MMLO 090149Z 27005KT 10SM FEW250 17/00 A3029 RMK 8/001= 090150

MMLO 090051Z 01005KT 10SM FEW250 18/00 A3026 RMK 8/001= 090052

MMLO 082343Z 00000KT 10SM SCT250 24/M02 A3025 RMK SLP140 54000 907 8/001= 082344

MMLO 082241Z 00000KT 10SM BKN250 26/M01 A3024 RMK 8/008= 082243

MMLO 082140Z 00000KT 10SM BKN250 26/M02 A3024 RMK 8/008= 082141

MMLO 082051Z 00000KT 10SM BKN250 25/M02 A3025 RMK SLP129 57030 904 8/008= 082053

MMLO 081941Z 21005KT 10SM BKN250 25/M02 A3028 RMK 8/008= 081942

MMLO 081845Z 19004KT 10SM BKN250 24/03 A3032 RMK 8/008= 081846

MMLO 081741Z 23004KT 10SM BKN250 22/03 A3036 RMK SLP170 57010 957 8/008= 081742

MMLO 081641Z 16004KT 10SM BKN250 20/03 A3039 RMK 8/008= 081642

MMLO 081541Z 00000KT 10SM BKN250 18/03 A3040 RMK 8/008= 081542

MMLO 081450Z 00000KT 10SM BKN250 14/04 A3040 RMK SLP204 52017 910 8/008= 081450

MMLO 081345Z 00000KT 10SM SCT250 06/02 A3038 RMK 8/001= 081345

MMLO 081241Z 00000KT 8SM SKC 06/01 A3035= 081241

MMLO 081153Z 00000KT 8SM SKC 06/01 A3034 RMK SLP142 5//// 906= 081154

MMLO 081046Z 00000KT 8SM SKC 07/02 A3031= 081047

MMLO 080946Z 00000KT 8SM SKC 08/02 A3031 RMK RTS= 080946

MMLO 080643Z 36004KT 8SM SKC 09/04 A3032= 080643

MMLO 080547Z 00000KT 8SM SKC 10/04 A3033 RMK SLP165 52010 900= 080548

MMLO 080445Z 00000KT 8SM SKC 12/05 A3031= 080445

MMLO 080344Z 36005KT 8SM SKC 12/05 A3030= 080344

MMLO 080247Z 36004KT 8SM SKC 14/06 A3029 RMK SLP160 52017 959= 080250

MMLO 080142Z 34004KT 8SM SKC 16/05 A3027= 080143

MMLO 080044Z 00000KT 8SM SKC 18/05 A3025= 080045

MMLO 072345Z 00000KT 10SM SKC 23/05 A3023 RMK SLP128 57003 967= 072346

MMLO 072242Z 18005G15KT 10SM SKC 25/05 A3022= 072243

MMLO 072141Z 27005KT 10SM FEW030 25/06 A3023 RMK 8/100= 072141

MMLO 072042Z 22006KT 10SM FEW030 25/06 A3024 RMK SLP121 57027 964 8/100= 072043

MMLO 071941Z 15004KT 10SM FEW030 24/07 A3026 RMK 8/100= 071942

MMLO 071842Z 00000KT 10SM FEW030 23/07 A3030 RMK 8/500= 071842

MMLO 071743Z 15004KT 10SM SKC 22/08 A3034 RMK SLP158 57007 964= 071743

MMLO 071646Z 15006KT 10SM SKC 20/08 A3036= 071646

MMLO 071542Z 00000KT 10SM FEW220 17/07 A3037 RMK 8/002= 071543

MMLO 071446Z 00000KT 8SM FEW220 18/07 A3036 RMK SLP181 5203 960 8/002 HZY= 071447

MMLO 071343Z 00000KT 8SM FEW220 08/05 A3034 RMK 8/002 HZY= 071343

MMLO 071253Z 00000KT 8SM FEW250 07/05 A3032 RMK 8/008= 071254

MMLO 071145Z 00000KT 8SM SKC 07/05 A3031 RMK SLP161 57003 963= 071145

MMLO 071050Z 00000KT 8SM SKC 08/05 A3031= 071051

MMLO 070951Z 00000KT 8SM SKC 09/05 A3032 RMK FU= 070952

MMLO 070747Z 00000KT 8SM FEW220 10/06 A3033 RMK 8/002= 070747

MMLO 070648Z 00000KT 8SM FEW220 10/06 A3033 RMK 8/002= 070649

MMLO 070552Z 00000KT 7SM FEW220 11/06 A3033 RMK SLP162 52001 961 8/002= 070555

MMLO 070445Z 36007KT 8SM SKC 12/06 A3034 RMK CI= 070446

MMLO 070347Z 36005KT 8SM SKC 13/06 A3032 RMK CI FU= 070348

MMLO 070246Z 03005KT 8SM SKC 14/06 A3032 RMK SLP174 52009 901 CI FU= 070248

MMLO 070146Z 01004KT 8SM FEW220 14/06 A3032 RMK 8/001 FU= 070147